createdAt,value
2019-04-10T00:00:21.608Z,11.41
2019-04-10T00:01:27.817Z,11.37
2019-04-10T00:02:31.580Z,11.29
2019-04-10T00:03:37.855Z,11.31
2019-04-10T00:04:41.197Z,11.31
2019-04-10T00:05:45.162Z,11.25
2019-04-10T00:06:48.803Z,11.29
2019-04-10T00:07:53.514Z,11.20
2019-04-10T00:08:57.195Z,11.19
2019-04-10T00:10:00.845Z,11.13
2019-04-10T00:11:05.033Z,11.20
2019-04-10T00:12:10.237Z,11.14
2019-04-10T00:13:14.226Z,11.07
2019-04-10T00:14:18.558Z,10.98
2019-04-10T00:15:22.366Z,10.98
2019-04-10T00:16:25.995Z,10.95
2019-04-10T00:17:31.184Z,10.91
2019-04-10T00:18:34.872Z,10.90
2019-04-10T00:19:38.495Z,10.85
2019-04-10T00:20:42.723Z,11.01
2019-04-10T00:21:47.347Z,11.02
2019-04-10T00:22:51.099Z,11.02
2019-04-10T00:23:55.559Z,11.07
2019-04-10T00:25:00.121Z,11.08
2019-04-10T00:26:03.854Z,11.10
2019-04-10T00:27:07.836Z,11.06
2019-04-10T00:28:11.803Z,11.09
2019-04-10T00:29:16.152Z,11.15
2019-04-10T00:30:20.767Z,11.14
2019-04-10T00:31:24.461Z,11.13
2019-04-10T00:32:28.048Z,11.09
2019-04-10T00:33:32.606Z,10.99
2019-04-10T00:34:36.385Z,10.96
2019-04-10T00:35:40.032Z,10.97
2019-04-10T00:36:43.680Z,11.00
2019-04-10T00:37:47.264Z,11.19
2019-04-10T00:38:50.911Z,11.19
2019-04-10T00:39:55.029Z,11.28
2019-04-10T00:40:59.625Z,11.28
2019-04-10T00:42:03.348Z,11.32
2019-04-10T00:43:06.981Z,11.27
2019-04-10T00:44:11.152Z,11.27
2019-04-10T00:45:15.446Z,11.23
2019-04-10T00:46:20.087Z,11.27
2019-04-10T00:47:23.671Z,11.29
2019-04-10T00:48:27.984Z,11.26
2019-04-10T00:49:31.682Z,11.19
2019-04-10T00:50:35.311Z,11.13
2019-04-10T00:51:39.477Z,11.07
2019-04-10T00:52:44.081Z,11.05
2019-04-10T00:53:47.835Z,11.08
2019-04-10T00:54:51.500Z,11.11
2019-04-10T00:55:55.150Z,11.07
2019-04-10T00:56:59.094Z,11.01
2019-04-10T00:58:03.662Z,11.01
2019-04-10T00:59:08.770Z,10.96
2019-04-10T01:00:12.860Z,10.95
2019-04-10T01:01:16.513Z,10.96
2019-04-10T01:02:20.622Z,10.99
2019-04-10T01:03:42.223Z,11.03
2019-04-10T01:04:46.732Z,11.05
2019-04-10T01:05:51.310Z,11.09
2019-04-10T01:06:55.037Z,11.11
2019-04-10T01:07:58.681Z,11.11
2019-04-10T01:09:02.314Z,10.96
2019-04-10T01:10:08.158Z,10.76
2019-04-10T01:11:12.342Z,10.43
2019-04-10T01:12:16.080Z,10.38
2019-04-10T01:13:20.889Z,10.38
2019-04-10T01:14:25.485Z,10.44
2019-04-10T01:15:29.222Z,10.40
2019-04-10T01:16:33.546Z,10.44
2019-04-10T01:17:38.189Z,10.40
2019-04-10T01:18:41.938Z,10.49
2019-04-10T01:19:45.605Z,10.57
2019-04-10T01:20:50.144Z,10.57
2019-04-10T01:21:54.853Z,10.50
2019-04-10T01:22:59.396Z,10.47
2019-04-10T01:24:03.612Z,10.47
2019-04-10T01:25:08.253Z,10.42
2019-04-10T01:26:12.710Z,10.42
2019-04-10T01:27:16.556Z,10.40
2019-04-10T01:28:20.582Z,10.41
2019-04-10T01:29:25.136Z,10.34
2019-04-10T01:30:28.955Z,10.43
2019-04-10T01:31:33.087Z,10.47
2019-04-10T01:32:36.745Z,10.47
2019-04-10T01:33:40.892Z,10.64
2019-04-10T01:34:45.503Z,10.64
2019-04-10T01:35:49.239Z,10.71
2019-04-10T01:36:52.930Z,10.71
2019-04-10T01:38:00.796Z,10.52
2019-04-10T01:39:02.182Z,10.45
2019-04-10T01:40:07.807Z,10.41
2019-04-10T01:41:11.873Z,10.49
2019-04-10T01:42:16.563Z,10.57
2019-04-10T01:43:20.256Z,10.52
2019-04-10T01:44:24.729Z,10.52
2019-04-10T01:45:29.275Z,10.45
2019-04-10T01:46:35.024Z,10.43
2019-04-10T01:47:39.334Z,10.43
2019-04-10T01:48:44.013Z,10.48
2019-04-10T01:49:48.295Z,10.53
2019-04-10T01:50:52.874Z,10.53
2019-04-10T01:51:57.416Z,10.60
2019-04-10T01:53:01.658Z,10.56
2019-04-10T01:54:05.452Z,10.56
2019-04-10T01:55:21.140Z,10.51
2019-04-10T01:56:21.933Z,10.53
2019-04-10T01:57:20.116Z,10.56
2019-04-10T01:58:25.204Z,10.46
2019-04-10T01:59:30.471Z,10.46
2019-04-10T02:00:35.758Z,10.39
2019-04-10T02:01:56.812Z,10.39
2019-04-10T02:03:01.433Z,10.30
2019-04-10T02:04:05.206Z,10.35
2019-04-10T02:05:09.252Z,10.43
2019-04-10T02:06:13.363Z,10.44
2019-04-10T02:07:18.049Z,10.44
2019-04-10T02:08:21.816Z,10.53
2019-04-10T02:09:25.709Z,10.53
2019-04-10T02:10:29.410Z,10.57
2019-04-10T02:11:34.195Z,10.78
2019-04-10T02:12:38.855Z,10.78
2019-04-10T02:13:43.505Z,10.80
2019-04-10T02:14:47.212Z,10.72
2019-04-10T02:15:51.010Z,10.67
2019-04-10T02:16:54.924Z,10.67
2019-04-10T02:17:59.150Z,10.72
2019-04-10T02:19:02.807Z,10.74
2019-04-10T02:20:08.377Z,10.74
2019-04-10T02:21:12.022Z,10.79
2019-04-10T02:22:16.098Z,10.89
2019-04-10T02:23:20.708Z,10.93
2019-04-10T02:24:25.211Z,10.89
2019-04-10T02:25:28.990Z,10.89
2019-04-10T02:26:33.791Z,10.84
2019-04-10T02:27:38.359Z,10.84
2019-04-10T02:28:42.958Z,10.92
2019-04-10T02:29:46.612Z,10.90
2019-04-10T02:30:50.319Z,10.82
2019-04-10T02:31:55.056Z,10.82
2019-04-10T02:32:59.787Z,10.72
2019-04-10T02:34:04.902Z,10.62
2019-04-10T02:35:13.230Z,10.76
2019-04-10T02:36:15.335Z,10.80
2019-04-10T02:37:19.261Z,10.81
2019-04-10T02:38:40.060Z,10.82
2019-04-10T02:39:36.151Z,10.82
2019-04-10T02:40:34.017Z,10.73
2019-04-10T02:41:38.616Z,10.73
2019-04-10T02:42:43.235Z,10.72
2019-04-10T02:43:47.518Z,10.72
2019-04-10T02:44:52.078Z,10.70
2019-04-10T02:45:57.603Z,10.68
2019-04-10T02:47:02.127Z,10.64
2019-04-10T02:48:07.882Z,10.72
2019-04-10T02:49:12.262Z,10.75
2019-04-10T02:50:16.614Z,10.75
2019-04-10T02:51:22.892Z,10.79
2019-04-10T02:52:26.024Z,10.85
2019-04-10T02:53:29.729Z,10.79
2019-04-10T02:54:33.693Z,10.79
2019-04-10T02:55:38.741Z,10.80
2019-04-10T02:56:43.370Z,10.80
2019-04-10T02:57:47.804Z,10.81
2019-04-10T02:58:51.720Z,10.81
2019-04-10T02:59:55.780Z,10.81
2019-04-10T03:01:01.333Z,10.63
2019-04-10T03:02:06.398Z,10.63
2019-04-10T03:03:11.886Z,10.72
2019-04-10T03:04:16.489Z,10.84
2019-04-10T03:05:22.890Z,10.84
2019-04-10T03:06:27.273Z,10.87
2019-04-10T03:07:31.948Z,10.97
2019-04-10T03:08:51.646Z,11.03
2019-04-10T03:09:54.937Z,10.97
2019-04-10T03:10:51.749Z,10.97
2019-04-10T03:11:52.127Z,10.74
2019-04-10T03:12:56.495Z,10.55
2019-04-10T03:14:01.655Z,10.46
2019-04-10T03:15:08.614Z,10.46
2019-04-10T03:16:13.990Z,10.53
2019-04-10T03:17:17.877Z,10.53
2019-04-10T03:18:21.529Z,10.48
2019-04-10T03:19:25.501Z,10.50
2019-04-10T03:20:30.072Z,10.56
2019-04-10T03:21:33.916Z,10.63
2019-04-10T03:22:37.746Z,10.58
2019-04-10T03:23:41.968Z,10.64
2019-04-10T03:24:46.407Z,10.64
2019-04-10T03:25:50.933Z,10.69
2019-04-10T03:26:54.697Z,10.58
2019-04-10T03:27:58.729Z,10.58
2019-04-10T03:29:03.228Z,10.52
2019-04-10T03:30:09.768Z,10.58
2019-04-10T03:31:13.616Z,10.62
2019-04-10T03:32:38.952Z,10.62
2019-04-10T03:33:47.260Z,10.72
2019-04-10T03:34:50.993Z,10.73
2019-04-10T03:35:56.896Z,10.73
2019-04-10T03:37:01.762Z,10.72
2019-04-10T03:38:06.027Z,10.83
2019-04-10T03:39:10.701Z,10.84
2019-04-10T03:40:15.368Z,10.84
2019-04-10T03:41:19.842Z,10.75
2019-04-10T03:42:23.586Z,10.60
2019-04-10T03:43:27.876Z,10.60
2019-04-10T03:44:32.526Z,10.59
2019-04-10T03:45:36.949Z,10.50
2019-04-10T03:46:40.770Z,10.52
2019-04-10T03:47:44.415Z,10.55
2019-04-10T03:48:47.992Z,10.58
2019-04-10T03:49:51.993Z,10.62
2019-04-10T03:50:56.288Z,10.67
2019-04-10T03:52:01.045Z,10.71
2019-04-10T03:53:05.507Z,10.71
2019-04-10T03:54:09.261Z,10.64
2019-04-10T03:55:12.948Z,10.64
2019-04-10T03:56:16.581Z,10.45
2019-04-10T03:57:20.673Z,10.45
2019-04-10T03:58:25.132Z,10.43
2019-04-10T03:59:28.802Z,10.43
2019-04-10T04:00:32.539Z,10.43
2019-04-10T04:01:36.206Z,10.29
2019-04-10T04:02:40.108Z,10.29
2019-04-10T04:03:44.717Z,10.21
2019-04-10T04:04:48.456Z,10.21
2019-04-10T04:05:53.104Z,10.31
2019-04-10T04:06:57.806Z,10.31
2019-04-10T04:08:01.537Z,10.36
2019-04-10T04:09:10.887Z,10.36
2019-04-10T04:10:12.805Z,10.34
2019-04-10T04:11:17.552Z,10.37
2019-04-10T04:12:22.293Z,10.37
2019-04-10T04:13:26.367Z,10.39
2019-04-10T04:14:30.516Z,10.29
2019-04-10T04:15:38.122Z,10.29
2019-04-10T04:16:41.789Z,10.26
2019-04-10T04:17:46.499Z,10.26
2019-04-10T04:18:51.212Z,10.26
2019-04-10T04:19:54.928Z,10.35
2019-04-10T04:20:59.342Z,10.37
2019-04-10T04:22:04.023Z,10.47
2019-04-10T04:23:07.750Z,10.47
2019-04-10T04:24:11.443Z,10.43
2019-04-10T04:25:15.118Z,10.43
2019-04-10T04:26:19.139Z,10.38
2019-04-10T04:27:22.793Z,10.42
2019-04-10T04:28:26.441Z,10.42
2019-04-10T04:29:30.365Z,10.45
2019-04-10T04:30:38.933Z,10.45
2019-04-10T04:31:42.686Z,10.35
2019-04-10T04:32:46.526Z,10.37
2019-04-10T04:33:50.208Z,10.37
2019-04-10T04:34:54.193Z,10.39
2019-04-10T04:35:58.008Z,10.48
2019-04-10T04:37:02.450Z,10.57
2019-04-10T04:38:07.144Z,10.62
2019-04-10T04:39:21.182Z,10.65
2019-04-10T04:40:17.355Z,10.71
2019-04-10T04:41:21.422Z,10.78
2019-04-10T04:42:25.071Z,10.81
2019-04-10T04:43:29.095Z,10.66
2019-04-10T04:44:33.335Z,10.68
2019-04-10T04:45:37.752Z,10.69
2019-04-10T04:46:41.599Z,10.69
2019-04-10T04:47:45.420Z,10.80
2019-04-10T04:48:50.088Z,10.80
2019-04-10T04:49:54.420Z,10.85
2019-04-10T04:50:59.729Z,10.77
2019-04-10T04:52:03.683Z,10.84
2019-04-10T04:53:07.215Z,10.84
2019-04-10T04:54:12.744Z,10.91
2019-04-10T04:55:17.585Z,10.92
2019-04-10T04:56:22.298Z,10.89
2019-04-10T04:57:27.026Z,10.88
2019-04-10T04:58:30.996Z,10.88
2019-04-10T04:59:34.691Z,10.94
2019-04-10T05:00:38.293Z,10.94
2019-04-10T05:01:42.529Z,10.95
2019-04-10T05:02:47.014Z,10.86
2019-04-10T05:03:51.075Z,10.86
2019-04-10T05:04:54.736Z,10.97
2019-04-10T05:05:58.408Z,11.00
2019-04-10T05:07:02.452Z,11.00
2019-04-10T05:08:07.382Z,10.94
2019-04-10T05:09:11.471Z,10.94
2019-04-10T05:10:15.434Z,10.96
2019-04-10T05:11:20.344Z,10.96
2019-04-10T05:12:24.200Z,11.11
2019-04-10T05:13:28.423Z,11.11
2019-04-10T05:14:32.224Z,11.09
2019-04-10T05:15:35.885Z,11.16
2019-04-10T05:16:41.658Z,11.22
2019-04-10T05:17:45.479Z,11.22
2019-04-10T05:18:50.091Z,11.30
2019-04-10T05:19:54.590Z,11.30
2019-04-10T05:20:58.821Z,11.29
2019-04-10T05:22:02.748Z,11.28
2019-04-10T05:23:06.349Z,11.22
2019-04-10T05:24:10.292Z,11.29
2019-04-10T05:25:13.994Z,11.35
2019-04-10T05:26:18.588Z,11.48
2019-04-10T05:27:22.660Z,11.49
2019-04-10T05:28:26.384Z,11.44
2019-04-10T05:29:31.159Z,11.48
2019-04-10T05:30:35.699Z,11.48
2019-04-10T05:31:40.342Z,11.55
2019-04-10T05:32:44.356Z,11.64
2019-04-10T05:33:49.076Z,11.75
2019-04-10T05:34:54.506Z,11.81
2019-04-10T05:35:59.211Z,11.86
2019-04-10T05:37:03.163Z,11.88
2019-04-10T05:38:07.953Z,11.93
2019-04-10T05:39:12.655Z,11.98
2019-04-10T05:40:17.393Z,11.84
2019-04-10T05:41:21.878Z,11.84
2019-04-10T05:42:26.876Z,11.82
2019-04-10T05:43:30.686Z,11.77
2019-04-10T05:44:34.370Z,11.85
2019-04-10T05:45:38.901Z,11.85
2019-04-10T05:46:42.991Z,11.86
2019-04-10T05:47:46.697Z,11.85
2019-04-10T05:48:50.541Z,11.88
2019-04-10T05:49:54.254Z,11.89
2019-04-10T05:51:02.965Z,11.89
2019-04-10T05:52:04.213Z,11.85
2019-04-10T05:53:08.264Z,11.85
2019-04-10T05:54:12.822Z,11.83
2019-04-10T05:55:16.631Z,11.90
2019-04-10T05:56:20.719Z,12.01
2019-04-10T05:57:24.643Z,12.09
2019-04-10T05:58:29.371Z,12.15
2019-04-10T05:59:34.191Z,12.15
2019-04-10T06:00:38.062Z,12.03
2019-04-10T06:01:43.164Z,12.03
2019-04-10T06:02:48.135Z,12.02
2019-04-10T06:03:52.603Z,11.96
2019-04-10T06:04:56.434Z,12.00
2019-04-10T06:06:01.137Z,12.08
2019-04-10T06:07:05.235Z,12.27
2019-04-10T06:08:09.824Z,12.32
2019-04-10T06:09:14.304Z,12.16
2019-04-10T06:10:18.023Z,12.14
2019-04-10T06:11:22.539Z,12.15
2019-04-10T06:12:26.513Z,12.17
2019-04-10T06:13:30.299Z,12.17
2019-04-10T06:14:34.535Z,12.25
2019-04-10T06:15:39.141Z,12.17
2019-04-10T06:16:42.993Z,12.16
2019-04-10T06:17:46.966Z,12.12
2019-04-10T06:18:51.431Z,12.15
2019-04-10T06:19:55.158Z,12.21
2019-04-10T06:20:58.919Z,12.36
2019-04-10T06:22:03.154Z,12.47
2019-04-10T06:23:07.430Z,12.56
2019-04-10T06:24:11.979Z,12.80
2019-04-10T06:25:16.433Z,12.92
2019-04-10T06:26:21.855Z,12.84
2019-04-10T06:27:26.691Z,12.89
2019-04-10T06:28:30.994Z,12.90
2019-04-10T06:29:35.147Z,12.83
2019-04-10T06:30:39.788Z,12.84
2019-04-10T06:31:43.541Z,12.92
2019-04-10T06:32:47.369Z,12.95
2019-04-10T06:33:51.096Z,13.14
2019-04-10T06:34:55.303Z,13.16
2019-04-10T06:35:59.009Z,13.19
2019-04-10T06:37:03.946Z,13.31
2019-04-10T06:38:07.837Z,13.26
2019-04-10T06:39:11.527Z,13.40
2019-04-10T06:40:19.754Z,13.40
2019-04-10T06:41:20.636Z,13.22
2019-04-10T06:42:24.565Z,13.14
2019-04-10T06:43:28.799Z,13.17
2019-04-10T06:44:32.559Z,13.33
2019-04-10T06:45:36.813Z,13.40
2019-04-10T06:46:41.694Z,13.39
2019-04-10T06:47:46.541Z,13.35
2019-04-10T06:48:50.285Z,13.35
2019-04-10T06:49:54.635Z,13.30
2019-04-10T06:50:59.828Z,13.32
2019-04-10T06:52:03.538Z,13.37
2019-04-10T06:53:08.446Z,13.34
2019-04-10T06:54:12.936Z,13.40
2019-04-10T06:55:16.650Z,13.43
2019-04-10T06:56:20.890Z,13.43
2019-04-10T06:57:24.992Z,13.51
2019-04-10T06:58:28.699Z,13.52
2019-04-10T06:59:32.563Z,13.55
2019-04-10T07:00:36.932Z,13.61
2019-04-10T07:01:48.747Z,13.85
2019-04-10T07:02:46.338Z,13.96
2019-04-10T07:03:59.387Z,13.87
2019-04-10T07:05:02.241Z,14.05
2019-04-10T07:06:09.798Z,14.05
2019-04-10T07:07:10.706Z,14.32
2019-04-10T07:08:16.439Z,14.39
2019-04-10T07:09:21.266Z,14.31
2019-04-10T07:10:30.822Z,14.28
2019-04-10T07:11:32.429Z,14.28
2019-04-10T07:12:35.610Z,14.37
2019-04-10T07:13:41.442Z,14.46
2019-04-10T07:14:49.047Z,14.53
2019-04-10T07:15:54.491Z,14.52
2019-04-10T07:17:00.634Z,14.58
2019-04-10T07:18:01.381Z,14.58
2019-04-10T07:19:08.573Z,14.63
2019-04-10T07:20:11.131Z,14.55
2019-04-10T07:21:14.879Z,14.45
2019-04-10T07:22:18.646Z,14.47
2019-04-10T07:23:26.879Z,14.57
2019-04-10T07:24:27.636Z,14.77
2019-04-10T07:25:32.020Z,15.01
2019-04-10T07:26:41.421Z,15.05
2019-04-10T07:27:41.831Z,15.16
2019-04-10T07:28:47.223Z,15.24
2019-04-10T07:29:53.902Z,15.32
2019-04-10T07:31:00.279Z,15.32
2019-04-10T07:32:04.795Z,15.46
2019-04-10T07:33:07.634Z,15.55
2019-04-10T07:34:11.346Z,15.41
2019-04-10T07:35:19.271Z,15.23
2019-04-10T07:36:20.513Z,15.12
2019-04-10T07:37:25.523Z,15.08
2019-04-10T07:38:30.805Z,15.05
2019-04-10T07:39:35.153Z,15.15
2019-04-10T07:40:38.909Z,15.30
2019-04-10T07:41:42.592Z,15.25
2019-04-10T07:42:46.350Z,15.15
2019-04-10T07:43:53.896Z,15.29
2019-04-10T07:44:56.404Z,15.46
2019-04-10T07:46:00.615Z,15.61
2019-04-10T07:47:04.761Z,15.76
2019-04-10T07:48:08.840Z,15.72
2019-04-10T07:49:12.505Z,15.46
2019-04-10T07:50:16.497Z,15.36
2019-04-10T07:51:21.128Z,15.27
2019-04-10T07:52:25.500Z,15.23
2019-04-10T07:53:29.269Z,15.22
2019-04-10T07:54:33.172Z,15.42
2019-04-10T07:55:37.421Z,15.39
2019-04-10T07:56:41.770Z,15.49
2019-04-10T07:57:47.731Z,15.55
2019-04-10T07:58:51.725Z,15.56
2019-04-10T07:59:56.715Z,15.64
2019-04-10T08:01:00.980Z,15.62
2019-04-10T08:02:08.103Z,15.82
2019-04-10T08:03:10.353Z,16.18
2019-04-10T08:04:14.656Z,16.35
2019-04-10T08:05:18.848Z,16.25
2019-04-10T08:06:23.502Z,16.23
2019-04-10T08:07:32.529Z,16.41
2019-04-10T08:08:33.950Z,16.53
2019-04-10T08:09:37.781Z,16.48
2019-04-10T08:10:43.668Z,16.55
2019-04-10T08:11:46.904Z,16.43
2019-04-10T08:12:53.668Z,16.48
2019-04-10T08:13:56.181Z,16.54
2019-04-10T08:15:00.666Z,16.63
2019-04-10T08:16:04.395Z,16.64
2019-04-10T08:17:08.413Z,16.80
2019-04-10T08:18:12.315Z,16.79
2019-04-10T08:19:16.656Z,16.80
2019-04-10T08:20:20.474Z,17.06
2019-04-10T08:21:24.124Z,17.38
2019-04-10T08:22:28.676Z,17.61
2019-04-10T08:23:33.665Z,17.71
2019-04-10T08:24:38.537Z,17.60
2019-04-10T08:25:43.111Z,17.64
2019-04-10T08:26:47.246Z,17.55
2019-04-10T08:27:52.202Z,17.32
2019-04-10T08:28:57.213Z,17.27
2019-04-10T08:30:01.243Z,17.34
2019-04-10T08:31:04.991Z,17.58
2019-04-10T08:32:09.800Z,17.68
2019-04-10T08:33:14.044Z,17.85
2019-04-10T08:34:17.711Z,17.94
2019-04-10T08:35:21.408Z,17.93
2019-04-10T08:36:25.592Z,17.84
2019-04-10T08:37:29.424Z,17.98
2019-04-10T08:38:33.120Z,17.97
2019-04-10T08:39:41.658Z,17.90
2019-04-10T08:40:42.168Z,17.87
2019-04-10T08:41:46.161Z,17.87
2019-04-10T08:42:49.832Z,17.86
2019-04-10T08:43:54.471Z,18.03
2019-04-10T08:44:58.140Z,18.11
2019-04-10T08:46:02.349Z,18.08
2019-04-10T08:47:07.167Z,17.98
2019-04-10T08:48:10.826Z,17.86
2019-04-10T08:49:14.473Z,17.96
2019-04-10T08:50:18.107Z,18.06
2019-04-10T08:51:21.796Z,18.21
2019-04-10T08:52:25.536Z,18.23
2019-04-10T08:53:29.186Z,18.09
2019-04-10T08:54:32.933Z,18.20
2019-04-10T08:55:37.796Z,18.43
2019-04-10T08:56:42.753Z,18.40
2019-04-10T08:57:46.523Z,18.42
2019-04-10T08:58:50.105Z,18.40
2019-04-10T08:59:54.138Z,18.11
2019-04-10T09:00:58.657Z,17.89
2019-04-10T09:02:02.510Z,17.89
2019-04-10T09:03:06.685Z,17.94
2019-04-10T09:04:10.503Z,17.90
2019-04-10T09:05:14.441Z,17.95
2019-04-10T09:06:18.093Z,17.91
2019-04-10T09:07:22.158Z,18.04
2019-04-10T09:08:26.666Z,18.21
2019-04-10T09:09:30.379Z,18.21
2019-04-10T09:10:34.448Z,17.92
2019-04-10T09:11:38.073Z,17.97
2019-04-10T09:12:41.753Z,18.11
2019-04-10T09:13:46.421Z,18.17
2019-04-10T09:14:50.149Z,18.07
2019-04-10T09:15:54.129Z,18.18
2019-04-10T09:16:58.590Z,18.36
2019-04-10T09:18:03.963Z,18.48
2019-04-10T09:19:07.708Z,18.50
2019-04-10T09:20:11.742Z,18.41
2019-04-10T09:21:15.485Z,18.46
2019-04-10T09:22:20.391Z,18.52
2019-04-10T09:23:33.055Z,18.62
2019-04-10T09:24:30.059Z,18.50
2019-04-10T09:25:33.733Z,18.39
2019-04-10T09:26:38.229Z,18.49
2019-04-10T09:27:42.892Z,18.74
2019-04-10T09:28:48.596Z,19.14
2019-04-10T09:29:52.480Z,19.37
2019-04-10T09:30:57.325Z,19.46
2019-04-10T09:32:02.162Z,19.48
2019-04-10T09:33:18.766Z,19.47
2019-04-10T09:34:11.792Z,19.53
2019-04-10T09:35:16.330Z,19.69
2019-04-10T09:36:20.136Z,19.68
2019-04-10T09:37:24.136Z,19.54
2019-04-10T09:38:28.496Z,19.36
2019-04-10T09:39:32.277Z,19.06
2019-04-10T09:40:36.289Z,19.00
2019-04-10T09:41:40.166Z,19.15
2019-04-10T09:42:44.117Z,19.27
2019-04-10T09:43:47.786Z,19.27
2019-04-10T09:44:51.451Z,19.51
2019-04-10T09:45:55.787Z,19.60
2019-04-10T09:47:00.000Z,19.45
2019-04-10T09:48:04.272Z,19.50
2019-04-10T09:49:08.869Z,19.37
2019-04-10T09:50:12.713Z,19.68
2019-04-10T09:51:19.197Z,19.87
2019-04-10T09:52:21.797Z,19.97
2019-04-10T09:53:26.644Z,20.20
2019-04-10T09:54:31.589Z,20.57
2019-04-10T09:55:36.315Z,20.71
2019-04-10T09:56:40.362Z,20.88
2019-04-10T09:57:44.011Z,20.85
2019-04-10T09:58:47.661Z,21.09
2019-04-10T09:59:52.453Z,21.20
2019-04-10T10:00:56.607Z,21.27
2019-04-10T10:02:00.684Z,21.15
2019-04-10T10:03:05.513Z,21.13
2019-04-10T10:04:09.306Z,21.44
2019-04-10T10:05:12.938Z,21.68
2019-04-10T10:06:25.262Z,21.85
2019-04-10T10:07:22.300Z,22.13
2019-04-10T10:08:26.853Z,22.34
2019-04-10T10:09:30.735Z,22.77
2019-04-10T10:10:36.762Z,22.99
2019-04-10T10:11:40.123Z,23.02
2019-04-10T10:12:44.924Z,23.09
2019-04-10T10:13:48.842Z,23.31
2019-04-10T10:14:52.485Z,23.54
2019-04-10T10:15:56.781Z,23.81
2019-04-10T10:17:00.622Z,23.78
2019-04-10T10:18:05.377Z,23.79
2019-04-10T10:19:10.005Z,24.30
2019-04-10T10:20:14.025Z,24.26
2019-04-10T10:21:18.647Z,24.11
2019-04-10T10:22:23.170Z,24.27
2019-04-10T10:23:27.628Z,24.86
2019-04-10T10:24:31.373Z,25.55
2019-04-10T10:25:35.369Z,25.73
2019-04-10T10:26:39.833Z,25.96
2019-04-10T10:27:44.687Z,26.29
2019-04-10T10:28:48.434Z,26.22
2019-04-10T10:29:53.533Z,26.00
2019-04-10T10:30:57.877Z,24.99
2019-04-10T10:32:02.564Z,25.01
2019-04-10T10:33:06.271Z,25.02
2019-04-10T10:34:10.360Z,25.75
2019-04-10T10:35:14.669Z,25.56
2019-04-10T10:36:18.453Z,25.57
2019-04-10T10:37:22.196Z,25.27
2019-04-10T10:38:25.828Z,24.90
2019-04-10T10:39:30.628Z,24.88
2019-04-10T10:40:34.446Z,24.83
2019-04-10T10:41:38.361Z,24.81
2019-04-10T10:42:42.154Z,24.85
2019-04-10T10:43:46.742Z,24.26
2019-04-10T10:44:50.482Z,24.36
2019-04-10T10:45:55.365Z,24.46
2019-04-10T10:47:00.058Z,24.55
2019-04-10T10:48:03.912Z,24.13
2019-04-10T10:49:08.387Z,24.59
2019-04-10T10:50:13.087Z,25.31
2019-04-10T10:51:16.847Z,25.86
2019-04-10T10:52:21.493Z,25.79
2019-04-10T10:53:25.244Z,25.99
2019-04-10T10:54:29.406Z,26.19
2019-04-10T10:55:33.793Z,26.61
2019-04-10T10:56:38.231Z,26.92
2019-04-10T10:57:41.954Z,27.12
2019-04-10T10:58:46.080Z,27.36
2019-04-10T10:59:49.759Z,27.71
2019-04-10T11:00:53.744Z,28.18
2019-04-10T11:01:57.497Z,28.47
2019-04-10T11:03:02.171Z,28.36
2019-04-10T11:04:06.774Z,28.59
2019-04-10T11:05:10.741Z,27.84
2019-04-10T11:06:14.969Z,27.10
2019-04-10T11:07:19.755Z,26.67
2019-04-10T11:08:24.072Z,26.51
2019-04-10T11:09:28.506Z,25.64
2019-04-10T11:10:32.308Z,24.88
2019-04-10T11:11:36.971Z,24.58
2019-04-10T11:12:40.777Z,25.12
2019-04-10T11:13:44.512Z,26.02
2019-04-10T11:14:48.254Z,26.55
2019-04-10T11:15:52.468Z,26.52
2019-04-10T11:16:57.677Z,26.64
2019-04-10T11:18:02.069Z,26.78
2019-04-10T11:19:07.741Z,26.92
2019-04-10T11:20:12.778Z,26.84
2019-04-10T11:21:16.956Z,26.95
2019-04-10T11:22:22.969Z,26.54
2019-04-10T11:23:25.998Z,25.97
2019-04-10T11:24:29.739Z,25.37
2019-04-10T11:25:33.511Z,25.51
2019-04-10T11:26:37.667Z,25.77
2019-04-10T11:27:42.046Z,25.60
2019-04-10T11:28:47.916Z,26.14
2019-04-10T11:29:53.164Z,26.37
2019-04-10T11:30:58.306Z,26.35
2019-04-10T11:32:02.377Z,26.26
2019-04-10T11:33:08.525Z,26.86
2019-04-10T11:34:14.038Z,26.98
2019-04-10T11:35:19.059Z,27.44
2019-04-10T11:36:23.588Z,27.43
2019-04-10T11:37:37.550Z,27.26
2019-04-10T11:38:33.626Z,27.76
2019-04-10T11:39:42.755Z,28.11
2019-04-10T11:40:43.020Z,28.10
2019-04-10T11:41:49.959Z,28.04
2019-04-10T11:42:53.797Z,28.39
2019-04-10T11:43:57.901Z,28.38
2019-04-10T11:45:01.870Z,28.21
2019-04-10T11:46:07.833Z,27.93
2019-04-10T11:47:12.504Z,27.81
2019-04-10T11:48:18.233Z,28.17
2019-04-10T11:49:22.914Z,27.97
2019-04-10T11:50:28.139Z,27.83
2019-04-10T11:51:34.249Z,28.13
2019-04-10T11:52:42.492Z,28.11
2019-04-10T11:53:45.412Z,28.04
2019-04-10T11:54:49.113Z,27.79
2019-04-10T11:55:53.811Z,27.53
2019-04-10T11:56:58.917Z,26.60
2019-04-10T11:58:05.378Z,27.07
2019-04-10T11:59:11.816Z,27.22
2019-04-10T12:00:19.702Z,27.38
2019-04-10T12:01:24.567Z,27.80
2019-04-10T12:02:28.286Z,28.24
2019-04-10T12:03:34.547Z,28.56
2019-04-10T12:04:48.026Z,28.51
2019-04-10T12:05:46.393Z,27.89
2019-04-10T12:08:22.146Z,27.49
2019-04-10T12:09:26.356Z,27.45
2019-04-10T12:11:15.969Z,28.01
2019-04-10T12:12:18.129Z,28.22
2019-04-10T12:13:21.983Z,27.74
2019-04-10T12:14:26.137Z,27.77
2019-04-10T12:15:29.851Z,27.50
2019-04-10T12:16:33.500Z,27.42
2019-04-10T12:17:38.167Z,27.69
2019-04-10T12:18:42.540Z,28.03
2019-04-10T12:19:48.772Z,28.27
2019-04-10T12:20:53.586Z,27.96
2019-04-10T12:21:58.041Z,28.17
2019-04-10T12:23:02.835Z,28.51
2019-04-10T12:24:07.401Z,28.48
2019-04-10T12:25:12.386Z,28.42
2019-04-10T12:26:16.120Z,28.31
2019-04-10T12:27:20.864Z,28.00
2019-04-10T12:28:25.602Z,27.71
2019-04-10T12:29:29.331Z,27.71
2019-04-10T12:30:33.252Z,27.45
2019-04-10T12:31:36.945Z,26.94
2019-04-10T12:32:41.070Z,25.74
2019-04-10T12:33:44.785Z,25.25
2019-04-10T12:34:48.739Z,24.72
2019-04-10T12:35:52.498Z,24.94
2019-04-10T12:36:56.475Z,25.27
2019-04-10T12:38:03.729Z,25.36
2019-04-10T12:39:07.961Z,25.22
2019-04-10T12:40:12.098Z,24.85
2019-04-10T12:41:15.796Z,24.20
2019-04-10T12:42:19.745Z,23.87
2019-04-10T12:43:23.500Z,23.69
2019-04-10T12:44:27.150Z,23.72
2019-04-10T12:45:30.807Z,23.39
2019-04-10T12:46:35.159Z,23.34
2019-04-10T12:47:39.786Z,23.53
2019-04-10T12:48:43.953Z,23.54
2019-04-10T12:49:49.913Z,23.70
2019-04-10T12:50:55.072Z,23.61
2019-04-10T12:51:58.778Z,23.67
2019-04-10T12:53:03.050Z,23.48
2019-04-10T12:54:07.909Z,23.70
2019-04-10T12:55:12.420Z,24.30
2019-04-10T12:56:16.127Z,24.57
2019-04-10T12:57:21.034Z,24.68
2019-04-10T12:58:24.776Z,25.05
2019-04-10T12:59:28.370Z,25.04
2019-04-10T13:00:32.055Z,25.05
2019-04-10T13:01:36.565Z,25.03
2019-04-10T13:02:40.746Z,24.96
2019-04-10T13:03:44.536Z,24.88
2019-04-10T13:04:49.025Z,24.63
2019-04-10T13:05:53.576Z,24.25
2019-04-10T13:06:58.988Z,24.02
2019-04-10T13:08:14.661Z,24.34
2019-04-10T13:09:12.450Z,24.61
2019-04-10T13:10:21.350Z,24.68
2019-04-10T13:11:25.012Z,24.62
2019-04-10T13:12:29.328Z,24.35
2019-04-10T13:13:33.806Z,24.08
2019-04-10T13:14:39.903Z,23.77
2019-04-10T13:15:43.644Z,23.61
2019-04-10T13:16:47.912Z,23.48
2019-04-10T13:17:51.696Z,23.47
2019-04-10T13:18:56.445Z,23.61
2019-04-10T13:20:00.251Z,23.73
2019-04-10T13:21:04.342Z,24.09
2019-04-10T13:22:08.002Z,24.42
2019-04-10T13:23:13.887Z,24.77
2019-04-10T13:24:17.406Z,25.18
2019-04-10T13:25:21.916Z,25.61
2019-04-10T13:26:25.996Z,25.77
2019-04-10T13:27:30.597Z,25.94
2019-04-10T13:28:34.407Z,26.38
2019-04-10T13:29:38.468Z,26.17
2019-04-10T13:30:48.929Z,25.98
2019-04-10T13:31:48.772Z,25.25
2019-04-10T13:32:52.519Z,25.24
2019-04-10T13:33:57.188Z,25.30
2019-04-10T13:35:01.808Z,25.35
2019-04-10T13:36:05.617Z,25.62
2019-04-10T13:37:10.221Z,25.66
2019-04-10T13:38:23.195Z,25.42
2019-04-10T13:39:20.416Z,25.19
2019-04-10T13:40:25.674Z,24.99
2019-04-10T13:41:29.607Z,24.82
2019-04-10T13:42:33.522Z,25.00
2019-04-10T13:43:38.063Z,25.14
2019-04-10T13:44:42.525Z,25.09
2019-04-10T13:45:46.559Z,25.24
2019-04-10T13:46:51.216Z,25.41
2019-04-10T13:47:55.130Z,25.52
2019-04-10T13:48:59.788Z,25.04
2019-04-10T13:50:06.352Z,25.15
2019-04-10T13:51:13.167Z,25.26
2019-04-10T13:52:16.771Z,25.38